createdAt,value
2023-03-03T00:00:27.344Z,678.71
2023-03-03T00:01:27.517Z,708.85
2023-03-03T00:02:27.823Z,644.09
2023-03-03T00:03:28.024Z,664.33
2023-03-03T00:04:28.162Z,663.79
2023-03-03T00:05:28.342Z,786.82
2023-03-03T00:06:28.507Z,912.01
2023-03-03T00:07:28.705Z,893.91
2023-03-03T00:08:28.874Z,896.21
2023-03-03T00:09:29.108Z,940.05
2023-03-03T00:10:29.300Z,1000.00
2023-03-03T00:11:29.503Z,1000.00
2023-03-03T00:12:29.690Z,1000.00
2023-03-03T00:13:29.852Z,1000.00
2023-03-03T00:14:30.106Z,1000.00
2023-03-03T00:15:30.294Z,1000.00
2023-03-03T00:16:30.466Z,1000.00
2023-03-03T00:17:30.645Z,1000.00
2023-03-03T00:18:30.884Z,1000.00
2023-03-03T00:19:31.096Z,1000.00
2023-03-03T00:20:31.290Z,1000.00
2023-03-03T00:21:31.460Z,1000.00
2023-03-03T00:22:31.711Z,1000.00
2023-03-03T00:23:31.884Z,1000.00
2023-03-03T00:24:32.119Z,1000.00
2023-03-03T00:25:32.317Z,1000.00
2023-03-03T00:26:32.502Z,1000.00
2023-03-03T00:27:32.677Z,1000.00
2023-03-03T00:28:32.866Z,1000.00
2023-03-03T00:29:33.069Z,1000.00
2023-03-03T00:30:33.237Z,1000.00
2023-03-03T00:31:33.485Z,1000.00
2023-03-03T00:32:33.622Z,1000.00
2023-03-03T00:33:33.811Z,1000.00
2023-03-03T00:34:33.999Z,1000.00
2023-03-03T00:35:34.261Z,1000.00
2023-03-03T00:36:34.415Z,1000.00
2023-03-03T00:37:34.709Z,1000.00
2023-03-03T00:38:34.851Z,1000.00
2023-03-03T00:39:35.111Z,1000.00
2023-03-03T00:40:35.261Z,1000.00
2023-03-03T00:41:35.495Z,850.86
2023-03-03T00:42:35.679Z,797.16
2023-03-03T00:43:35.852Z,637.78
2023-03-03T00:44:36.038Z,544.61
2023-03-03T00:45:36.233Z,525.09
2023-03-03T00:46:36.448Z,518.65
2023-03-03T00:47:36.634Z,543.75
2023-03-03T00:48:36.828Z,585.69
2023-03-03T00:53:37.808Z,621.88
2023-03-03T00:54:38.064Z,611.01
2023-03-03T00:55:38.330Z,673.38
2023-03-03T00:56:38.524Z,639.04
2023-03-03T00:57:38.724Z,739.19
2023-03-03T00:58:38.942Z,894.15
2023-03-03T00:59:39.124Z,1000.00
2023-03-03T01:00:39.324Z,1000.00
2023-03-03T01:01:39.557Z,881.62
2023-03-03T01:45:48.039Z,213.80
2023-03-03T02:41:57.875Z,249.41
2023-03-03T02:42:58.096Z,283.22
2023-03-03T02:43:58.282Z,312.61
2023-03-03T02:44:58.552Z,340.99
2023-03-03T02:45:58.683Z,437.39
2023-03-03T02:46:58.820Z,540.36
2023-03-03T02:47:59.007Z,535.10
2023-03-03T02:48:59.192Z,532.06
2023-03-03T02:49:59.352Z,486.95
2023-03-03T02:50:59.519Z,423.88
2023-03-03T02:51:59.691Z,379.28
2023-03-03T02:52:59.863Z,412.17
2023-03-03T02:54:00.016Z,466.27
2023-03-03T02:55:00.197Z,480.70
2023-03-03T02:56:00.372Z,420.79
2023-03-03T02:57:00.564Z,364.57
2023-03-03T02:58:00.757Z,370.23
2023-03-03T02:59:00.927Z,358.71
2023-03-03T03:00:01.108Z,324.85
2023-03-03T03:01:01.308Z,349.20
2023-03-03T03:02:01.466Z,307.11
2023-03-03T03:03:01.673Z,278.44
2023-03-03T03:04:01.914Z,255.86
2023-03-03T03:05:02.056Z,251.42
2023-03-03T03:06:02.244Z,291.73
2023-03-03T03:07:02.432Z,290.25
2023-03-03T03:08:02.626Z,288.12
2023-03-03T03:09:02.797Z,296.40
2023-03-03T03:10:02.996Z,320.15
2023-03-03T03:11:03.188Z,342.40
2023-03-03T03:12:03.384Z,325.51
2023-03-03T03:13:03.559Z,291.58
2023-03-03T03:14:03.760Z,286.81
2023-03-03T03:15:03.939Z,272.92
2023-03-03T03:16:04.129Z,278.82
2023-03-03T03:17:04.310Z,272.56
2023-03-03T03:18:04.501Z,262.71
2023-03-03T03:19:04.694Z,269.73
2023-03-03T03:20:04.855Z,266.32
2023-03-03T03:21:05.030Z,259.08
2023-03-03T03:22:05.249Z,209.40
2023-03-03T03:23:05.408Z,189.42
2023-03-03T03:37:07.942Z,258.20
2023-03-03T03:38:08.166Z,240.84
2023-03-03T03:39:08.350Z,245.44
2023-03-03T03:40:08.528Z,270.88
2023-03-03T03:41:08.727Z,263.28
2023-03-03T03:42:08.928Z,262.51
2023-03-03T03:43:09.120Z,247.92
2023-03-03T03:44:09.303Z,258.23
2023-03-03T03:45:09.485Z,270.77
2023-03-03T03:46:09.715Z,295.73
2023-03-03T03:47:09.775Z,287.72
2023-03-03T03:48:10.010Z,300.33
2023-03-03T03:49:10.197Z,315.48
2023-03-03T03:50:10.369Z,312.56
2023-03-03T03:51:10.543Z,307.01
2023-03-03T03:52:10.724Z,295.30
2023-03-03T03:53:10.910Z,305.83
2023-03-03T03:54:11.082Z,318.26
2023-03-03T03:55:11.241Z,295.52
2023-03-03T03:56:11.406Z,251.47
2023-03-03T03:57:11.568Z,212.81
2023-03-03T03:58:11.746Z,183.59
2023-03-03T03:59:11.936Z,177.64
2023-03-03T04:00:12.120Z,197.33
2023-03-03T04:01:12.327Z,204.30
2023-03-03T04:02:12.579Z,182.76
2023-03-03T04:03:12.747Z,177.45
2023-03-03T04:04:12.937Z,243.48
2023-03-03T04:05:13.058Z,264.41
2023-03-03T04:06:13.301Z,314.12
2023-03-03T04:07:13.503Z,321.70
2023-03-03T04:08:13.688Z,338.90
2023-03-03T04:09:13.864Z,314.54
2023-03-03T04:10:14.031Z,331.71
2023-03-03T04:11:14.203Z,254.55
2023-03-03T04:12:14.353Z,240.90
2023-03-03T04:13:14.535Z,247.48
2023-03-03T04:14:14.712Z,260.84
2023-03-03T04:15:14.878Z,249.47
2023-03-03T04:16:15.192Z,246.42
2023-03-03T04:17:15.144Z,241.18
2023-03-03T04:32:17.924Z,206.59
2023-03-03T04:33:18.131Z,207.92
2023-03-03T04:34:18.310Z,213.93
2023-03-03T04:35:18.538Z,231.76
2023-03-03T04:36:18.682Z,265.93
2023-03-03T04:37:18.875Z,310.48
2023-03-03T04:38:19.083Z,406.13
2023-03-03T04:39:19.262Z,581.63
2023-03-03T04:40:19.541Z,765.32
2023-03-03T04:41:19.688Z,983.19
2023-03-03T04:42:19.864Z,1000.00
2023-03-03T04:43:20.072Z,1000.00
2023-03-03T04:44:20.276Z,1000.00
2023-03-03T04:45:20.493Z,1000.00
2023-03-03T04:46:20.796Z,1000.00
2023-03-03T04:47:20.930Z,1000.00
2023-03-03T04:48:21.110Z,1000.00
2023-03-03T04:49:21.298Z,1000.00
2023-03-03T04:50:21.501Z,1000.00
2023-03-03T04:51:21.687Z,1000.00
2023-03-03T05:25:27.882Z,1000.00
2023-03-03T05:26:28.058Z,1000.00
2023-03-03T05:27:28.238Z,1000.00
2023-03-03T05:28:28.419Z,1000.00
2023-03-03T05:29:28.620Z,1000.00
2023-03-03T05:30:28.805Z,1000.00
2023-03-03T05:31:29.031Z,1000.00
2023-03-03T05:32:29.185Z,1000.00
2023-03-03T05:33:29.315Z,1000.00
2023-03-03T05:34:29.492Z,1000.00
2023-03-03T05:35:29.734Z,1000.00
2023-03-03T05:36:29.852Z,1000.00
2023-03-03T06:21:37.853Z,1000.00
2023-03-03T06:22:38.037Z,1000.00
2023-03-03T06:23:38.271Z,1000.00
2023-03-03T06:24:38.267Z,1000.00
2023-03-03T06:25:38.566Z,1000.00
2023-03-03T06:26:38.721Z,1000.00
2023-03-03T06:27:38.909Z,1000.00
2023-03-03T06:28:39.065Z,1000.00
2023-03-03T06:29:39.243Z,1000.00
2023-03-03T06:30:39.441Z,1000.00
2023-03-03T06:31:39.961Z,1000.00
2023-03-03T06:32:39.866Z,1000.00
2023-03-03T06:33:39.981Z,1000.00
2023-03-03T06:34:40.177Z,1000.00
2023-03-03T06:35:40.469Z,1000.00
2023-03-03T06:36:40.695Z,1000.00
2023-03-03T06:37:40.875Z,1000.00
2023-03-03T06:38:41.921Z,1000.00
2023-03-03T06:40:41.013Z,1000.00
2023-03-03T06:41:40.993Z,1000.00
2023-03-03T06:42:40.976Z,1000.00
2023-03-03T07:17:41.241Z,1000.00
2023-03-03T07:18:41.230Z,1000.00
2023-03-03T07:19:41.236Z,1000.00
2023-03-03T07:20:41.203Z,1000.00
2023-03-03T07:21:41.346Z,1000.00
2023-03-03T07:22:41.276Z,1000.00
2023-03-03T07:24:41.309Z,915.13
2023-03-03T07:25:41.312Z,716.73
2023-03-03T07:26:41.322Z,681.65
2023-03-03T07:27:41.329Z,624.29
2023-03-03T07:28:41.334Z,572.74
2023-03-03T07:29:41.346Z,518.65
2023-03-03T07:30:41.348Z,555.96
2023-03-03T07:31:41.323Z,637.38
2023-03-03T07:32:41.498Z,864.16
2023-03-03T07:33:41.673Z,1000.00
2023-03-03T07:34:41.842Z,1000.00
2023-03-03T07:35:42.037Z,1000.00
2023-03-03T07:36:42.171Z,1000.00
2023-03-03T07:37:42.339Z,1000.00
2023-03-03T07:38:42.490Z,1000.00
2023-03-03T07:39:42.664Z,1000.00
2023-03-03T07:40:42.779Z,1000.00
2023-03-03T08:09:47.723Z,1000.00
2023-03-03T08:10:47.824Z,1000.00
2023-03-03T08:11:48.001Z,1000.00
2023-03-03T08:12:48.190Z,1000.00
2023-03-03T08:13:48.315Z,1000.00
2023-03-03T08:14:48.394Z,1000.00
2023-03-03T08:15:52.007Z,600.28
2023-03-03T08:16:48.547Z,361.68
2023-03-03T08:17:48.524Z,370.31
2023-03-03T08:18:48.399Z,509.04
2023-03-03T08:19:48.329Z,762.91
2023-03-03T08:20:48.295Z,979.22
2023-03-03T08:21:48.178Z,774.96
2023-03-03T08:22:48.098Z,769.95
2023-03-03T08:23:48.023Z,703.70
2023-03-03T08:24:47.964Z,796.25
2023-03-03T08:25:47.898Z,919.30
2023-03-03T08:26:47.822Z,908.03
2023-03-03T08:27:47.753Z,782.71
2023-03-03T08:28:48.436Z,358.31
2023-03-03T08:35:48.087Z,186.41
2023-03-03T08:42:46.597Z,58.80
2023-03-03T08:43:46.535Z,58.71
2023-03-03T08:44:46.479Z,63.04
2023-03-03T08:45:46.361Z,57.96
2023-03-03T09:10:17.877Z,0.53
2023-03-03T09:11:18.055Z,0.68
2023-03-03T09:12:18.245Z,0.86
2023-03-03T09:13:18.426Z,1.05
2023-03-03T09:14:18.634Z,1.14
2023-03-03T09:15:18.804Z,1.14
2023-03-03T09:16:18.996Z,1.25
2023-03-03T09:17:19.173Z,1.47
2023-03-03T09:18:19.334Z,1.45
2023-03-03T09:19:19.500Z,1.46
2023-03-03T09:20:19.687Z,1.56
2023-03-03T09:21:19.856Z,1.59
2023-03-03T09:22:20.029Z,1.57
2023-03-03T11:36:24.576Z,0.74
2023-03-03T11:37:24.736Z,0.79
2023-03-03T11:38:24.888Z,0.75
2023-03-03T11:39:25.051Z,0.75
2023-03-03T11:40:25.188Z,0.64
2023-03-03T11:41:25.336Z,0.53
2023-03-03T11:42:26.344Z,0.50
2023-03-03T11:43:36.191Z,0.50
2023-03-03T11:44:26.390Z,0.49
2023-03-03T11:45:25.371Z,0.50
2023-03-03T11:46:25.353Z,0.50
2023-03-03T11:47:26.644Z,0.56
2023-03-03T11:48:25.214Z,0.64
2023-03-03T11:49:25.194Z,0.52
2023-03-03T11:50:25.128Z,0.53
2023-03-03T11:51:25.090Z,0.54
2023-03-03T11:52:25.041Z,0.50
2023-03-03T11:53:25.012Z,0.50
2023-03-03T11:54:24.967Z,0.50
2023-03-03T11:56:24.913Z,0.47
2023-03-03T11:57:24.880Z,0.50
2023-03-03T13:14:27.739Z,1.51
2023-03-03T13:15:32.511Z,1.67
2023-03-03T13:16:40.408Z,1.67
2023-03-03T13:17:28.803Z,1.68
2023-03-03T15:24:28.441Z,47.88
2023-03-03T15:44:27.893Z,65.54
2023-03-03T15:45:28.001Z,65.56
2023-03-03T15:46:28.267Z,73.13
2023-03-03T15:47:28.438Z,77.03
2023-03-03T15:48:28.522Z,80.39
2023-03-03T15:49:28.784Z,89.44
2023-03-03T15:50:28.874Z,102.28
2023-03-03T15:51:28.812Z,108.33
2023-03-03T15:52:28.899Z,114.07
2023-03-03T15:53:29.104Z,124.34
2023-03-03T15:54:29.297Z,121.65
2023-03-03T16:47:37.835Z,1000.00
2023-03-03T16:48:37.974Z,1000.00
2023-03-03T16:49:38.115Z,1000.00
2023-03-03T16:50:38.330Z,1000.00
2023-03-03T16:51:38.498Z,1000.00
2023-03-03T16:52:38.695Z,1000.00
2023-03-03T16:53:39.375Z,1000.00
2023-03-03T16:54:38.897Z,1000.00
2023-03-03T16:55:38.925Z,1000.00
2023-03-03T16:56:38.957Z,1000.00
2023-03-03T16:57:38.970Z,1000.00
2023-03-03T16:58:39.002Z,1000.00
2023-03-03T16:59:39.005Z,1000.00
2023-03-03T17:00:39.021Z,1000.00
2023-03-03T17:01:39.074Z,1000.00
2023-03-03T17:02:39.298Z,1000.00
2023-03-03T17:03:39.496Z,1000.00
2023-03-03T17:04:39.701Z,1000.00
2023-03-03T17:05:39.835Z,1000.00
2023-03-03T17:06:40.003Z,1000.00
2023-03-03T17:07:40.158Z,1000.00
2023-03-03T17:08:40.314Z,1000.00
2023-03-03T17:09:40.471Z,1000.00
2023-03-03T17:10:40.664Z,1000.00
2023-03-03T17:11:40.824Z,1000.00
2023-03-03T17:12:40.987Z,1000.00
2023-03-03T17:13:41.153Z,1000.00
2023-03-03T17:14:41.313Z,1000.00
2023-03-03T17:15:41.474Z,1000.00
2023-03-03T17:16:51.903Z,1000.00
2023-03-03T17:18:41.535Z,1000.00
2023-03-03T17:19:41.489Z,1000.00
2023-03-03T17:20:41.452Z,1000.00
2023-03-03T17:21:41.399Z,1000.00
2023-03-03T17:22:41.366Z,1000.00
2023-03-03T17:23:41.298Z,1000.00
2023-03-03T17:24:41.260Z,1000.00
2023-03-03T17:25:41.210Z,1000.00
2023-03-03T17:26:41.198Z,1000.00
2023-03-03T17:27:41.328Z,1000.00
2023-03-03T17:28:41.590Z,1000.00
2023-03-03T17:29:41.752Z,1000.00
2023-03-03T17:30:41.918Z,1000.00
2023-03-03T17:31:42.079Z,1000.00
2023-03-03T17:32:42.292Z,1000.00
2023-03-03T17:33:42.419Z,1000.00
2023-03-03T17:34:42.596Z,1000.00
2023-03-03T17:35:42.799Z,1000.00
2023-03-03T17:36:42.901Z,1000.00
2023-03-03T18:02:47.929Z,1000.00
2023-03-03T18:03:48.143Z,1000.00
2023-03-03T18:04:48.299Z,1000.00
2023-03-03T18:05:48.492Z,1000.00
2023-03-03T18:06:48.693Z,1000.00
2023-03-03T18:07:48.883Z,1000.00
2023-03-03T18:08:49.087Z,1000.00
2023-03-03T18:09:49.270Z,1000.00
2023-03-03T18:10:49.488Z,1000.00
2023-03-03T18:16:50.748Z,1000.00
2023-03-03T18:53:57.835Z,1000.00
2023-03-03T18:54:58.036Z,1000.00
2023-03-03T18:55:58.207Z,1000.00
2023-03-03T18:56:58.468Z,1000.00
2023-03-03T18:57:58.679Z,1000.00
2023-03-03T18:58:58.876Z,1000.00
2023-03-03T18:59:59.097Z,1000.00
2023-03-03T19:00:59.303Z,1000.00
2023-03-03T19:01:59.503Z,1000.00
2023-03-03T19:02:59.705Z,1000.00
2023-03-03T19:04:00.450Z,1000.00
2023-03-03T19:04:59.948Z,1000.00
2023-03-03T19:05:59.939Z,1000.00
2023-03-03T19:06:59.977Z,1000.00
2023-03-03T19:07:59.943Z,1000.00
2023-03-03T19:08:59.907Z,1000.00
2023-03-03T19:09:59.953Z,1000.00
2023-03-03T19:10:59.942Z,1000.00
2023-03-03T19:11:59.914Z,1000.00
2023-03-03T19:12:59.918Z,1000.00
2023-03-03T19:13:59.890Z,1000.00
2023-03-03T19:14:59.877Z,1000.00
2023-03-03T19:15:59.988Z,1000.00
2023-03-03T19:16:59.918Z,1000.00
2023-03-03T19:17:59.916Z,1000.00
2023-03-03T19:18:59.911Z,1000.00
2023-03-03T19:19:59.905Z,1000.00
2023-03-03T19:20:59.909Z,1000.00
2023-03-03T19:21:59.998Z,1000.00
2023-03-03T19:23:00.045Z,1000.00
2023-03-03T19:24:00.084Z,1000.00
2023-03-03T19:25:00.090Z,1000.00
2023-03-03T19:26:00.083Z,1000.00
2023-03-03T19:27:00.127Z,1000.00
2023-03-03T19:28:00.112Z,1000.00
2023-03-03T19:30:00.173Z,1000.00
2023-03-03T19:31:00.242Z,1000.00
2023-03-03T19:32:00.240Z,1000.00
2023-03-03T19:33:00.229Z,1000.00
2023-03-03T19:34:00.253Z,1000.00
2023-03-03T19:35:00.298Z,1000.00
2023-03-03T19:36:00.379Z,1000.00
2023-03-03T19:37:00.372Z,1000.00
2023-03-03T19:38:00.752Z,1000.00
2023-03-03T19:39:00.804Z,1000.00
2023-03-03T19:40:01.002Z,1000.00
2023-03-03T20:30:07.959Z,1000.00
2023-03-03T20:43:07.723Z,1000.00
2023-03-03T20:44:07.769Z,1000.00
2023-03-03T20:45:07.892Z,1000.00
2023-03-03T20:46:07.904Z,1000.00
2023-03-03T20:47:07.898Z,1000.00
2023-03-03T20:48:09.902Z,1000.00
2023-03-03T20:49:07.941Z,1000.00
2023-03-03T20:50:07.949Z,1000.00
2023-03-03T20:51:07.925Z,1000.00
2023-03-03T20:52:07.934Z,1000.00
2023-03-03T20:53:07.920Z,1000.00
2023-03-03T20:54:07.918Z,1000.00
2023-03-03T20:55:10.492Z,1000.00
2023-03-03T20:56:07.938Z,1000.00
2023-03-03T20:57:07.943Z,1000.00
2023-03-03T20:58:07.934Z,1000.00
2023-03-03T20:59:07.940Z,1000.00
2023-03-03T21:00:07.945Z,1000.00
2023-03-03T21:01:07.963Z,1000.00
2023-03-03T21:02:07.958Z,1000.00
2023-03-03T21:03:07.982Z,1000.00
2023-03-03T21:04:07.994Z,1000.00
2023-03-03T21:05:07.949Z,1000.00
2023-03-03T21:06:07.950Z,1000.00
2023-03-03T21:07:07.945Z,1000.00
2023-03-03T21:08:07.996Z,1000.00
2023-03-03T21:09:07.944Z,1000.00
2023-03-03T21:10:07.949Z,1000.00
2023-03-03T21:11:07.984Z,1000.00
2023-03-03T21:12:07.958Z,1000.00
2023-03-03T21:13:07.962Z,1000.00
2023-03-03T21:14:07.960Z,1000.00
2023-03-03T21:15:07.975Z,1000.00
2023-03-03T21:16:08.010Z,1000.00
2023-03-03T21:17:07.963Z,1000.00
2023-03-03T21:18:07.976Z,1000.00
2023-03-03T21:19:07.979Z,1000.00
2023-03-03T21:20:07.989Z,1000.00
2023-03-03T21:21:07.993Z,1000.00
2023-03-03T21:22:07.998Z,1000.00
2023-03-03T21:23:08.023Z,1000.00
2023-03-03T21:24:08.012Z,1000.00
2023-03-03T21:25:08.017Z,1000.00
2023-03-03T21:26:08.022Z,1000.00
2023-03-03T21:27:08.033Z,1000.00
2023-03-03T21:28:08.037Z,1000.00
2023-03-03T21:29:08.027Z,1000.00
2023-03-03T21:30:08.066Z,1000.00
2023-03-03T21:31:08.068Z,1000.00
2023-03-03T21:32:08.160Z,1000.00
2023-03-03T21:33:08.040Z,1000.00
2023-03-03T21:34:09.481Z,1000.00
2023-03-03T21:35:08.046Z,1000.00
2023-03-03T21:36:08.072Z,1000.00
2023-03-03T21:37:08.117Z,1000.00
2023-03-03T21:38:08.291Z,1000.00
2023-03-03T21:39:08.486Z,1000.00
2023-03-03T21:40:08.686Z,1000.00
2023-03-03T21:41:08.870Z,1000.00
2023-03-03T21:42:09.072Z,1000.00
2023-03-03T21:43:09.255Z,1000.00
2023-03-03T21:44:09.457Z,1000.00
2023-03-03T21:45:09.648Z,1000.00
2023-03-03T21:46:09.903Z,1000.00
2023-03-03T21:47:10.081Z,1000.00
2023-03-03T21:48:10.257Z,1000.00
2023-03-03T21:49:10.455Z,1000.00
2023-03-03T21:50:10.676Z,1000.00
2023-03-03T21:51:10.854Z,1000.00
2023-03-03T21:52:11.048Z,1000.00
2023-03-03T21:53:11.247Z,1000.00
2023-03-03T21:54:11.440Z,1000.00
2023-03-03T21:55:11.636Z,1000.00
2023-03-03T21:56:11.837Z,1000.00
2023-03-03T21:57:12.048Z,1000.00
2023-03-03T21:58:12.217Z,1000.00
2023-03-03T21:59:12.409Z,1000.00
2023-03-03T22:00:12.607Z,1000.00
2023-03-03T22:01:12.861Z,1000.00
2023-03-03T22:02:13.119Z,1000.00
2023-03-03T22:36:17.774Z,1000.00
2023-03-03T22:37:18.107Z,1000.00
2023-03-03T22:38:18.321Z,1000.00
2023-03-03T22:39:18.530Z,1000.00
2023-03-03T22:40:18.759Z,1000.00
2023-03-03T22:41:18.981Z,1000.00
2023-03-03T23:23:27.780Z,1000.00
2023-03-03T23:24:27.978Z,1000.00
2023-03-03T23:25:28.168Z,1000.00
2023-03-03T23:26:28.361Z,1000.00
2023-03-03T23:27:28.578Z,1000.00
2023-03-03T23:28:28.748Z,1000.00
2023-03-03T23:29:28.904Z,1000.00
2023-03-03T23:30:29.161Z,1000.00
2023-03-03T23:31:29.395Z,1000.00
2023-03-03T23:32:29.633Z,1000.00
2023-03-03T23:33:29.697Z,1000.00
2023-03-03T23:34:29.905Z,1000.00
2023-03-03T23:35:30.120Z,1000.00
2023-03-03T23:36:30.304Z,1000.00
